createdAt,value
2022-08-19T00:16:42.784Z,99947.44
2022-08-19T00:36:46.750Z,99950.16
2022-08-19T00:56:50.922Z,99962.31
2022-08-19T01:17:01.119Z,99940.28
2022-08-19T01:37:12.306Z,99944.81
2022-08-19T01:57:16.166Z,99934.59
2022-08-19T02:17:19.535Z,99906.44
2022-08-19T02:37:41.606Z,99889.69
2022-08-19T02:57:45.005Z,99893.25
2022-08-19T03:17:48.439Z,99916.22
2022-08-19T03:37:52.059Z,99936.06
2022-08-19T03:57:59.057Z,99945.88
2022-08-19T04:18:03.320Z,99959.44
2022-08-19T04:38:07.060Z,99986.75
2022-08-19T04:58:11.096Z,99996.09
2022-08-19T05:18:34.177Z,99984.41
2022-08-19T05:38:37.565Z,99998.69
2022-08-19T05:58:41.235Z,100006.31
2022-08-19T06:18:45.243Z,100001.88
2022-08-19T06:38:48.872Z,100007.66
2022-08-19T06:58:54.203Z,99981.72
2022-08-19T07:18:58.071Z,99980.44
2022-08-19T07:39:04.289Z,100010.59
2022-08-19T07:59:08.903Z,100004.78
2022-08-19T08:19:25.778Z,99991.66
2022-08-19T08:39:29.892Z,100001.25
2022-08-19T08:59:36.949Z,99986.72
2022-08-19T09:19:57.324Z,99960.66
2022-08-19T09:40:01.182Z,99956.16
2022-08-19T10:00:08.821Z,99943.88
2022-08-19T10:20:13.415Z,99909.72
2022-08-19T10:40:17.001Z,99899.91
2022-08-19T11:00:24.345Z,99887.31
2022-08-19T11:20:27.579Z,99880.00
2022-08-19T11:40:30.949Z,99878.75
2022-08-19T12:00:37.614Z,99871.81
2022-08-19T12:20:42.603Z,99852.97
2022-08-19T12:40:50.471Z,99837.41
2022-08-19T13:00:54.111Z,99847.19
2022-08-19T13:20:57.575Z,99802.78
2022-08-19T13:41:09.979Z,99801.31
2022-08-19T14:01:21.654Z,99790.66
2022-08-19T14:21:27.953Z,99757.66
2022-08-19T14:41:31.608Z,99804.81
2022-08-19T15:01:35.897Z,99788.91
2022-08-19T15:21:39.257Z,99838.22
2022-08-19T15:41:43.333Z,99873.63
2022-08-19T16:02:07.280Z,99902.06
2022-08-19T16:22:14.106Z,99843.59
2022-08-19T16:42:17.673Z,99813.59
2022-08-19T17:02:23.497Z,99880.34
2022-08-19T17:22:29.901Z,99987.28
2022-08-19T17:42:33.358Z,99878.22
2022-08-19T18:02:45.318Z,99788.19
2022-08-19T18:22:49.825Z,99803.81
2022-08-19T18:43:22.827Z,100008.09
2022-08-19T19:03:30.484Z,100148.00
2022-08-19T19:23:34.038Z,100087.09
2022-08-19T19:43:40.993Z,99999.00
2022-08-19T20:03:45.541Z,99918.78
2022-08-19T20:24:09.845Z,99913.59
2022-08-19T20:44:15.454Z,100231.88
2022-08-19T21:04:20.253Z,100307.19
2022-08-19T21:24:26.445Z,100278.34
2022-08-19T21:44:35.483Z,100163.84
2022-08-19T22:04:41.849Z,100119.28
2022-08-19T22:24:45.522Z,100026.38
2022-08-19T22:44:49.459Z,99974.88
2022-08-19T23:04:53.474Z,99954.09
2022-08-19T23:25:02.387Z,99909.37
2022-08-19T23:45:07.314Z,99950.75
